Time;durP1;ratioP1;P1;durP2;ratioP2;P2;SDS_P1;SDS_P2;PMS_P1;PMS_P2;Temp;Humidity;BMP_temperature;BMP_pressure;BME280_temperature;BME280_humidity;BME280_pressure;Samples;Min_cycle;Max_cycle;Signal;HPM_P1;HPM_P2
2022/03/20 00:02:32;;;;;;;4.95;4.32;;;;;;;19.33;40.44;98687.06;10488043;28;20059;-59
2022/03/20 00:07:52;;;;;;;5.88;4.13;;;;;;;19.33;40.28;98680.88;10484311;28;20056;-59
2022/03/20 00:13:15;;;;;;;4.82;4.25;;;;;;;19.32;40.45;98685.44;10468073;28;20056;-59
2022/03/20 00:18:34;;;;;;;6.07;4.50;;;;;;;19.31;40.46;98680.34;10486767;28;20499;-59
2022/03/20 00:23:54;;;;;;;5.53;4.30;;;;;;;19.30;40.34;98678.72;10493570;28;20048;-59
2022/03/20 00:29:14;;;;;;;5.13;3.90;;;;;;;19.28;40.38;98676.28;10501160;28;20044;-59
2022/03/20 00:34:34;;;;;;;5.38;4.13;;;;;;;19.26;40.21;98669.53;10492768;28;20052;-58
2022/03/20 00:39:56;;;;;;;4.60;3.97;;;;;;;19.27;40.33;98671.16;10454463;28;20615;-59
2022/03/20 00:45:15;;;;;;;4.72;4.18;;;;;;;19.25;40.18;98670.59;10469278;28;20052;-58
2022/03/20 00:50:35;;;;;;;5.20;3.92;;;;;;;19.24;40.37;98660.91;10498919;28;20040;-58
2022/03/20 00:55:55;;;;;;;4.88;3.92;;;;;;;19.23;40.22;98664.66;10525583;28;20044;-59
2022/03/20 01:01:15;;;;;;;4.57;3.75;;;;;;;19.22;40.38;98658.47;10508450;28;20107;-58
2022/03/20 01:06:35;;;;;;;4.90;3.80;;;;;;;19.21;40.27;98656.03;10483946;28;20048;-59
2022/03/20 01:11:55;;;;;;;5.50;3.70;;;;;;;19.20;40.20;98649.84;10452989;28;20069;-58
2022/03/20 01:17:15;;;;;;;3.95;3.58;;;;;;;19.19;40.36;98647.41;10493066;28;20048;-59
2022/03/20 01:22:35;;;;;;;4.88;3.97;;;;;;;19.17;40.33;98645.00;10494186;28;20056;-59
2022/03/20 01:27:54;;;;;;;4.25;3.70;;;;;;;19.16;40.22;98646.88;10484465;28;20053;-58
2022/03/20 01:33:15;;;;;;;3.65;3.28;;;;;;;19.14;40.19;98645.53;10487166;28;20060;-58
2022/03/20 01:38:35;;;;;;;5.57;3.90;;;;;;;19.13;40.30;98636.63;10477292;28;20411;-59
2022/03/20 01:43:57;;;;;;;4.28;3.78;;;;;;;19.12;40.20;98636.91;10474397;28;20095;-59
2022/03/20 01:49:16;;;;;;;4.50;3.40;;;;;;;19.10;40.24;98639.88;10452505;28;20056;-59
2022/03/20 01:54:37;;;;;;;3.83;3.42;;;;;;;19.09;40.22;98635.56;10478454;28;20044;-59
2022/03/20 01:59:57;;;;;;;5.22;3.90;;;;;;;19.08;40.15;98633.94;10482681;28;20049;-59
2022/03/20 02:05:17;;;;;;;4.70;3.40;;;;;;;19.08;40.14;98625.03;10475406;28;20060;-58
2022/03/20 02:10:36;;;;;;;4.10;3.40;;;;;;;19.06;40.06;98625.31;10466078;28;20053;-59
2022/03/20 02:15:55;;;;;;;4.93;4.13;;;;;;;19.05;40.21;98615.59;10463679;28;20049;-59
2022/03/20 02:21:18;;;;;;;4.82;3.50;;;;;;;19.02;39.95;98613.44;10501403;28;20040;-59
2022/03/20 02:26:37;;;;;;;4.15;3.38;;;;;;;19.03;39.98;98619.66;10492258;28;20048;-58
2022/03/20 02:31:59;;;;;;;3.67;3.20;;;;;;;19.02;40.08;98618.84;10513315;28;20040;-59
2022/03/20 02:37:21;;;;;;;4.13;3.38;;;;;;;19.01;40.13;98622.63;10474530;28;20040;-59
2022/03/20 02:42:42;;;;;;;3.63;3.10;;;;;;;19.01;39.96;98621.81;10474613;28;20569;-57
2022/03/20 02:48:04;;;;;;;3.75;3.35;;;;;;;18.98;39.96;98615.09;10479953;28;20062;-58
2022/03/20 02:53:23;;;;;;;4.88;3.45;;;;;;;18.98;39.97;98612.38;10480098;28;20048;-59
2022/03/20 02:58:42;;;;;;;3.63;3.17;;;;;;;18.98;40.07;98619.69;10482114;28;20046;-59
2022/03/20 03:04:02;;;;;;;4.00;3.35;;;;;;;18.96;40.10;98618.06;10464021;28;20045;-59
2022/03/20 03:20:37;;;;;;;3.63;3.27;;;;;;;18.92;39.86;98613.50;10493166;28;20661;-58
2022/03/20 03:25:57;;;;;;;3.97;3.20;;;;;;;18.92;39.93;98624.28;10482576;28;20032;-58
2022/03/20 03:31:16;;;;;;;3.72;3.08;;;;;;;18.89;40.02;98619.44;10486409;28;20056;-58
2022/03/20 03:36:36;;;;;;;3.70;3.17;;;;;;;18.88;39.93;98618.63;10485830;28;20048;-58
2022/03/20 03:41:55;;;;;;;5.13;3.33;;;;;;;18.87;39.89;98610.78;10481060;28;20060;-59
2022/03/20 03:47:15;;;;;;;4.18;3.13;;;;;;;18.86;40.01;98615.41;10520860;28;20376;-59
2022/03/20 03:52:34;;;;;;;4.05;3.20;;;;;;;18.84;39.85;98604.06;10477781;28;20059;-59
2022/03/20 03:57:55;;;;;;;3.63;3.00;;;;;;;18.84;39.82;98609.47;10504695;28;20503;-58
2022/03/20 04:03:15;;;;;;;3.55;3.00;;;;;;;18.83;39.84;98612.44;10486212;28;20048;-58
2022/03/20 04:08:34;;;;;;;4.93;3.15;;;;;;;18.81;39.74;98623.50;10470746;28;20053;-59
2022/03/20 04:13:54;;;;;;;3.33;3.03;;;;;;;18.80;39.77;98612.97;10476204;28;20048;-59
2022/03/20 04:19:13;;;;;;;3.10;2.80;;;;;;;18.78;39.66;98611.34;10522688;28;20063;-59
2022/03/20 04:24:33;;;;;;;2.95;2.67;;;;;;;18.78;39.84;98611.34;10503867;28;20044;-58
2022/03/20 04:29:53;;;;;;;3.83;3.20;;;;;;;18.77;39.79;98615.09;10478491;28;20064;-58
2022/03/20 04:35:13;;;;;;;3.92;3.10;;;;;;;18.75;39.71;98619.97;10480067;28;20056;-58
2022/03/20 04:40:33;;;;;;;3.30;2.92;;;;;;;18.74;39.74;98620.28;10480058;28;20095;-58
2022/03/20 04:45:53;;;;;;;3.38;3.00;;;;;;;18.74;39.82;98617.56;10461221;28;20447;-59
2022/03/20 05:02:28;;;;;;;3.00;2.70;;;;;;;18.71;39.77;98634.31;10471242;28;20457;-59
2022/03/20 05:07:48;;;;;;;4.47;3.10;;;;;;;18.68;39.68;98641.06;10465665;28;20107;-58
2022/03/20 05:13:19;;;;;;;3.80;3.05;;;;;;;18.68;39.83;98643.75;10464366;28;20052;-59
2022/03/20 05:18:39;;;;;;;3.17;2.70;;;;;;;18.67;39.91;98657.53;10487112;28;20522;-58
2022/03/20 05:23:58;;;;;;;3.42;2.88;;;;;;;18.66;39.86;98659.44;10495518;28;20046;-59
2022/03/20 05:29:17;;;;;;;2.92;2.63;;;;;;;18.65;39.75;98663.19;10490566;28;20533;-58
2022/03/20 05:34:37;;;;;;;3.20;2.70;;;;;;;18.64;39.74;98669.69;10490406;28;20041;-58
2022/03/20 05:39:57;;;;;;;3.35;2.80;;;;;;;18.64;39.74;98677.78;10487095;28;20096;-58
2022/03/20 05:45:16;;;;;;;3.53;2.47;;;;;;;18.63;39.69;98676.16;10446607;28;20049;-59
2022/03/20 05:50:36;;;;;;;2.92;2.63;;;;;;;18.62;39.88;98677.25;10453269;28;20094;-59
2022/03/20 06:01:34;;;;;;;3.10;2.60;;;;;;;18.65;40.38;98686.69;10426092;28;20443;-58
2022/03/20 06:06:53;;;;;;;3.55;2.85;;;;;;;18.64;40.33;98688.59;10437588;28;20041;-59
2022/03/20 06:12:13;;;;;;;3.05;2.75;;;;;;;18.66;40.41;98691.81;10435558;28;20048;-58
2022/03/20 06:17:36;;;;;;;2.85;2.58;;;;;;;18.68;40.41;98708.56;10444934;28;20068;-58
2022/03/20 06:22:55;;;;;;;3.35;2.70;;;;;;;18.68;40.45;98711.25;10442183;28;20064;-59
2022/03/20 06:28:15;;;;;;;3.08;2.78;;;;;;;18.70;40.80;98711.78;10456325;28;20060;-58
2022/03/20 06:33:35;;;;;;;2.55;2.35;;;;;;;18.71;40.86;98721.50;10454122;28;20056;-58
2022/03/20 06:38:55;;;;;;;2.50;2.30;;;;;;;18.71;41.17;98713.41;10467938;28;20037;-59
2022/03/20 06:44:18;;;;;;;4.13;2.65;;;;;;;18.72;41.32;98719.63;10496870;28;20049;-59
2022/03/20 06:49:37;;;;;;;4.35;2.80;;;;;;;18.72;41.01;98723.13;10510726;28;20090;-59
2022/03/20 06:54:58;;;;;;;2.85;2.65;;;;;;;18.75;40.88;98735.25;10507888;28;20049;-58
2022/03/20 07:00:18;;;;;;;3.20;2.60;;;;;;;18.77;41.16;98736.59;10482218;28;20056;-60
2022/03/20 07:06:03;;;;;;;3.03;2.72;;;;;;;18.80;41.12;98729.06;10475853;28;20049;-59
2022/03/20 07:11:23;;;;;;;3.08;2.60;;;;;;;18.82;40.96;98729.59;10463263;28;20072;-59
2022/03/20 07:16:42;;;;;;;4.30;3.20;;;;;;;18.87;41.53;98727.72;10458684;28;20052;-59
2022/03/20 07:22:02;;;;;;;3.95;2.40;;;;;;;18.90;41.71;98737.19;10491578;28;20411;-60
2022/03/20 07:33:00;;;;;;;4.00;2.90;;;;;;;18.98;41.66;98733.91;10490400;28;20059;-60
2022/03/20 07:38:20;;;;;;;3.75;3.05;;;;;;;19.02;41.59;98745.78;10489004;28;20059;-60
2022/03/20 07:43:39;;;;;;;5.90;2.80;;;;;;;19.07;41.76;98748.50;10493681;28;20404;-58
2022/03/20 07:49:00;;;;;;;3.65;2.80;;;;;;;19.12;41.63;98751.16;10481974;28;20056;-60
2022/03/20 07:54:20;;;;;;;4.10;2.60;;;;;;;19.18;41.56;98754.69;10506134;28;20090;-60
2022/03/20 07:59:42;;;;;;;4.80;2.83;;;;;;;19.23;41.25;98751.97;10492081;28;20052;-61
2022/03/20 08:05:01;;;;;;;3.65;2.70;;;;;;;19.27;41.41;98752.22;10507451;28;20731;-60
2022/03/20 08:10:21;;;;;;;3.10;2.78;;;;;;;19.31;41.25;98750.59;10494034;28;20645;-60
2022/03/20 08:15:40;;;;;;;3.10;2.80;;;;;;;19.35;41.28;98747.06;10508156;28;20048;-61
2022/03/20 08:21:00;;;;;;;3.22;2.92;;;;;;;19.40;41.04;98746.22;10522017;28;20058;-60
2022/03/20 08:26:20;;;;;;;4.18;2.70;;;;;;;19.44;41.10;98755.41;10497175;28;20496;-60
2022/03/20 08:31:44;;;;;;;4.82;2.80;;;;;;;19.52;40.84;98756.72;10504746;28;20058;-59
2022/03/20 08:37:04;;;;;;;3.08;2.78;;;;;;;19.55;40.87;98756.19;10499830;28;20468;-61
2022/03/20 08:42:23;;;;;;;6.93;2.95;;;;;;;19.61;41.02;98762.38;10497608;28;20063;-61
2022/03/20 08:47:45;;;;;;;4.00;2.88;;;;;;;19.66;40.80;98755.06;10495128;28;20105;-60
2022/03/20 08:53:04;;;;;;;7.28;4.80;;;;;;;19.65;33.93;98736.41;10516198;28;20044;-61
2022/03/20 08:58:24;;;;;;;7.13;4.80;;;;;;;19.63;35.70;98744.78;10519376;28;20055;-58
2022/03/20 09:03:45;;;;;;;6.90;4.35;;;;;;;19.68;36.38;98747.47;10524828;28;20129;-60
2022/03/20 09:09:05;;;;;;;8.63;4.70;;;;;;;19.70;34.69;98741.81;10506780;28;20063;-60
2022/03/20 09:14:25;;;;;;;11.48;5.28;;;;;;;19.73;35.22;98744.75;10492778;28;20367;-60
2022/03/20 09:19:44;;;;;;;10.45;5.30;;;;;;;19.79;35.31;98753.66;10493068;28;20075;-60
2022/03/20 09:25:07;;;;;;;8.27;5.10;;;;;;;19.83;35.49;98748.50;10491016;28;20048;-60
2022/03/20 09:30:27;;;;;;;12.05;5.50;;;;;;;19.87;35.45;98744.97;10499302;28;20048;-60
2022/03/20 09:35:46;;;;;;;7.07;4.80;;;;;;;19.90;35.52;98739.00;10499636;28;20049;-60
2022/03/20 09:41:08;;;;;;;11.50;5.28;;;;;;;19.93;35.60;98749.28;10468885;28;20067;-60
2022/03/20 09:46:27;;;;;;;10.63;5.68;;;;;;;19.95;35.72;98757.94;10445934;28;20099;-60
2022/03/20 09:51:47;;;;;;;12.70;5.70;;;;;;;19.97;35.91;98749.50;10460832;28;20053;-60
2022/03/20 09:57:09;;;;;;;11.75;5.50;;;;;;;19.98;35.94;98740.31;10460606;28;20057;-60
2022/03/20 10:02:29;;;;;;;10.27;5.65;;;;;;;20.00;36.11;98738.13;10460292;28;20049;-60
2022/03/20 10:07:49;;;;;;;9.77;5.40;;;;;;;20.02;35.94;98740.56;10460126;28;20053;-60
2022/03/20 10:13:13;;;;;;;11.95;5.32;;;;;;;20.03;36.26;98743.00;10473309;28;20087;-60
2022/03/20 10:18:33;;;;;;;9.07;5.70;;;;;;;20.03;36.40;98753.81;10459764;28;20049;-60
2022/03/20 10:23:53;;;;;;;13.82;6.40;;;;;;;20.04;36.53;98733.78;10472775;28;20041;-60
2022/03/20 10:29:17;;;;;;;11.50;5.88;;;;;;;20.05;36.59;98735.41;10472732;28;20037;-60
2022/03/20 10:34:57;;;;;;;11.93;6.10;;;;;;;20.07;36.52;98737.81;10467541;28;20408;-60
2022/03/20 10:40:22;;;;;;;14.20;6.43;;;;;;;20.08;36.45;98744.84;10457635;28;20106;-60
2022/03/20 10:45:59;;;;;;;11.20;6.10;;;;;;;20.08;36.78;98734.03;10497239;28;20052;-60
2022/03/20 10:51:41;;;;;;;12.70;5.82;;;;;;;20.08;36.93;98724.00;10499700;28;20040;-60
2022/03/20 10:57:02;;;;;;;11.55;5.93;;;;;;;20.09;36.98;98724.81;10499526;28;20520;-60
2022/03/20 11:02:24;;;;;;;10.82;5.70;;;;;;;20.09;36.99;98724.81;10499792;28;20052;-60
2022/03/20 11:07:44;;;;;;;10.48;5.80;;;;;;;20.10;37.01;98731.84;10499495;28;20048;-60
2022/03/20 11:13:05;;;;;;;11.73;6.10;;;;;;;20.10;37.11;98710.22;10498967;28;20074;-60
2022/03/20 11:18:25;;;;;;;10.30;5.97;;;;;;;20.10;37.12;98705.59;10498286;28;20056;-60
2022/03/20 11:23:45;;;;;;;9.70;5.65;;;;;;;20.11;37.29;98709.09;10497053;28;20037;-60
2022/03/20 11:29:09;;;;;;;9.63;5.53;;;;;;;20.11;37.15;98704.53;10498610;28;20048;-60
2022/03/20 11:34:29;;;;;;;9.35;5.28;;;;;;;20.11;37.66;98701.81;10444017;28;20515;-60
2022/03/20 11:40:07;;;;;;;7.78;5.07;;;;;;;20.12;37.89;98694.50;10496450;28;20052;-60
2022/03/20 11:45:27;;;;;;;8.52;5.20;;;;;;;20.12;38.00;98684.47;10510880;28;20044;-60
2022/03/20 11:50:49;;;;;;;9.70;5.60;;;;;;;20.12;37.95;98687.19;10497280;28;20053;-60
2022/03/20 11:56:29;;;;;;;8.25;4.85;;;;;;;20.12;38.21;98684.47;10497263;28;20458;-60
2022/03/20 12:02:03;;;;;;;7.90;5.10;;;;;;;20.12;38.06;98692.59;10497330;28;20396;-60
2022/03/20 12:07:31;;;;;;;8.95;4.82;;;;;;;20.12;38.20;98675.56;10496228;28;20132;-60
2022/03/20 12:13:15;;;;;;;7.30;4.88;;;;;;;20.14;38.10;98673.38;10496785;28;20572;-60
2022/03/20 12:19:06;;;;;;;7.65;4.78;;;;;;;20.13;38.17;98677.16;10496534;28;20110;-60
2022/03/20 12:24:35;;;;;;;7.03;4.55;;;;;;;20.13;38.08;98685.28;10496198;28;20045;-60
2022/03/20 12:29:58;;;;;;;;;;;;;;;20.13;38.12;98674.44;10464349;28;20467;-60
2022/03/20 12:35:23;;;;;;;7.90;4.30;;;;;;;20.12;38.16;98664.75;10457018;28;19927;-60
2022/03/20 12:40:43;;;;;;;7.32;4.50;;;;;;;20.12;38.13;98656.63;10494799;28;20060;-60
2022/03/20 12:46:07;;;;;;;8.13;4.43;;;;;;;20.11;38.14;98660.41;10507274;28;20040;-60
2022/03/20 12:51:35;;;;;;;6.90;3.90;;;;;;;20.10;38.14;98656.91;10495059;28;20114;-60
2022/03/20 12:56:56;;;;;;;6.65;4.22;;;;;;;20.11;37.98;98655.00;10495406;28;20403;-60
2022/03/20 13:02:15;;;;;;;5.40;4.00;;;;;;;20.10;38.07;98656.09;10494612;28;20392;-59
2022/03/20 13:07:38;;;;;;;6.25;4.15;;;;;;;20.11;38.07;98644.16;10495162;28;20052;-60
2022/03/20 13:12:58;;;;;;;6.03;3.90;;;;;;;20.10;38.01;98637.16;10494314;28;20073;-60
2022/03/20 13:18:26;;;;;;;6.55;3.75;;;;;;;20.10;38.25;98651.47;10495506;28;20510;-60
2022/03/20 13:23:46;;;;;;;5.72;3.80;;;;;;;20.11;38.17;98646.88;10494268;28;20051;-60
2022/03/20 13:29:05;;;;;;;5.88;3.80;;;;;;;20.11;38.28;98641.47;10492766;28;20063;-60
2022/03/20 13:34:24;;;;;;;5.95;3.88;;;;;;;20.11;38.17;98630.63;10493943;28;20056;-60
2022/03/20 13:39:46;;;;;;;5.53;3.72;;;;;;;20.11;38.24;98638.75;10493540;28;20057;-60
2022/03/20 13:45:06;;;;;;;5.38;3.55;;;;;;;20.11;38.20;98641.47;10493972;28;20055;-60
2022/03/20 13:50:26;;;;;;;6.47;3.80;;;;;;;20.09;38.27;98625.53;10493610;28;20044;-60
2022/03/20 13:55:46;;;;;;;4.85;3.40;;;;;;;20.09;38.26;98633.66;10491110;28;20657;-60
2022/03/20 14:01:05;;;;;;;5.55;3.60;;;;;;;20.11;38.25;98619.81;10483481;28;20057;-60
2022/03/20 14:06:36;;;;;;;6.22;3.63;;;;;;;20.11;38.34;98628.75;10452649;28;20111;-60
2022/03/20 14:11:55;;;;;;;5.30;3.33;;;;;;;20.10;38.30;98634.44;10466259;28;20049;-60
2022/03/20 14:17:15;;;;;;;6.43;3.60;;;;;;;20.10;38.32;98642.56;10504265;28;20041;-60
2022/03/20 14:22:54;;;;;;;4.45;3.38;;;;;;;20.10;38.27;98646.06;10503052;28;20055;-60
2022/03/20 14:28:35;;;;;;;3.95;3.00;;;;;;;20.08;38.32;98639.34;10500867;28;20553;-60
2022/03/20 14:39:47;;;;;;;4.25;3.10;;;;;;;20.07;38.42;98648.53;10499483;28;20059;-60
2022/03/20 14:45:08;;;;;;;3.53;3.00;;;;;;;20.09;38.44;98638.22;10499766;28;20048;-60
2022/03/20 14:50:28;;;;;;;5.90;2.92;;;;;;;20.08;38.37;98628.53;10513461;28;20043;-60
2022/03/20 14:55:47;;;;;;;3.53;2.75;;;;;;;20.08;38.50;98623.09;10499961;28;20381;-60
2022/03/20 15:01:08;;;;;;;4.90;3.13;;;;;;;20.08;38.42;98633.94;10499508;28;20446;-60
2022/03/20 15:06:27;;;;;;;3.80;2.95;;;;;;;20.08;38.41;98629.31;10499370;28;20044;-60
2022/03/20 15:11:47;;;;;;;4.15;3.03;;;;;;;20.09;38.47;98622.81;10498668;28;20079;-60
2022/03/20 15:17:10;;;;;;;4.22;2.90;;;;;;;20.11;38.49;98617.13;10505525;28;20098;-60
2022/03/20 15:22:32;;;;;;;4.82;2.92;;;;;;;20.11;38.46;98617.13;10499017;28;20052;-60
2022/03/20 15:27:51;;;;;;;5.35;2.83;;;;;;;20.10;38.51;98626.34;10497402;28;20048;-60
2022/03/20 15:33:10;;;;;;;3.53;2.72;;;;;;;20.09;38.51;98622.81;10498368;28;20452;-60
2022/03/20 15:38:30;;;;;;;4.38;2.60;;;;;;;20.09;38.48;98622.00;10497398;28;20052;-60
2022/03/20 15:43:50;;;;;;;4.28;2.80;;;;;;;20.08;38.49;98621.19;10497153;28;20121;-60
2022/03/20 15:49:10;;;;;;;4.15;3.20;;;;;;;20.07;38.38;98640.41;10511053;28;20044;-60
2022/03/20 15:54:29;;;;;;;4.03;2.88;;;;;;;20.07;38.45;98638.53;10510784;28;20048;-60
2022/03/20 15:59:49;;;;;;;3.08;2.47;;;;;;;20.05;38.37;98648.00;10498151;28;20445;-60
2022/03/20 16:05:08;;;;;;;3.42;2.83;;;;;;;20.04;38.38;98651.81;10496983;28;20567;-60
2022/03/20 16:10:28;;;;;;;3.60;2.58;;;;;;;20.02;38.44;98648.59;10496845;28;20151;-60
2022/03/20 16:15:48;;;;;;;3.38;2.28;;;;;;;20.02;38.45;98646.69;10496670;28;20411;-60
2022/03/20 16:21:07;;;;;;;3.28;2.60;;;;;;;20.00;38.34;98650.78;10509884;28;20041;-59
2022/03/20 16:32:11;;;;;;;3.03;2.30;;;;;;;19.98;38.36;98652.94;10495383;28;20052;-60
2022/03/20 16:37:31;;;;;;;3.03;2.40;;;;;;;19.96;38.45;98653.22;10493734;28;20052;-60
2022/03/20 16:42:50;;;;;;;3.38;2.60;;;;;;;19.95;38.45;98652.44;10495204;28;20056;-60
2022/03/20 16:48:09;;;;;;;2.95;2.35;;;;;;;19.94;38.32;98648.09;10495532;28;20068;-60
2022/03/20 16:53:31;;;;;;;2.83;2.33;;;;;;;19.92;38.35;98650.28;10495492;28;20403;-60
2022/03/20 16:58:51;;;;;;;3.20;2.50;;;;;;;19.92;38.25;98650.28;10494453;28;20053;-60
2022/03/20 17:04:10;;;;;;;3.30;2.40;;;;;;;19.89;38.21;98645.41;10494955;28;20041;-60
2022/03/20 17:09:32;;;;;;;3.00;2.50;;;;;;;19.88;38.39;98643.81;10501874;28;20045;-60
2022/03/20 17:14:51;;;;;;;2.58;2.33;;;;;;;19.88;38.23;98653.84;10494879;28;20044;-60
2022/03/20 17:20:15;;;;;;;3.50;2.47;;;;;;;19.86;38.37;98650.59;10494934;28;20083;-60
2022/03/20 17:25:35;;;;;;;3.90;2.42;;;;;;;19.85;38.22;98652.47;10494144;28;20048;-60
2022/03/20 17:30:55;;;;;;;2.42;2.17;;;;;;;19.84;38.53;98653.56;10494908;28;20131;-60
2022/03/20 17:36:14;;;;;;;3.03;2.17;;;;;;;19.83;38.19;98651.94;10494072;28;20380;-60
2022/03/20 17:41:34;;;;;;;3.03;2.40;;;;;;;19.82;38.15;98646.84;10493927;28;20056;-60
2022/03/20 17:46:54;;;;;;;3.05;2.30;;;;;;;19.82;38.21;98653.06;10494330;28;20053;-60
2022/03/20 17:52:13;;;;;;;3.15;2.50;;;;;;;19.80;38.34;98646.28;10502241;28;20052;-60
2022/03/20 17:57:33;;;;;;;3.00;2.28;;;;;;;19.78;38.14;98649.28;10511706;28;20051;-60
2022/03/20 18:08:31;;;;;;;3.40;2.40;;;;;;;19.76;38.18;98654.19;10501108;28;20063;-59
2022/03/20 18:13:53;;;;;;;2.10;1.90;;;;;;;19.76;38.22;98651.47;10515447;28;20049;-60
2022/03/20 18:19:14;;;;;;;1.95;1.67;;;;;;;19.74;38.20;98659.84;10515077;28;20037;-60
2022/03/20 18:24:34;;;;;;;3.20;2.30;;;;;;;19.74;38.24;98659.06;10514732;28;20044;-60
2022/03/20 18:29:53;;;;;;;2.10;1.88;;;;;;;19.72;38.24;98650.41;10501239;28;20110;-60
2022/03/20 18:35:14;;;;;;;2.40;2.17;;;;;;;19.70;38.18;98661.47;10500310;28;20733;-60
2022/03/20 18:40:38;;;;;;;2.72;2.08;;;;;;;19.67;36.79;98653.13;10521883;28;20063;-60
2022/03/20 18:45:59;;;;;;;3.97;2.63;;;;;;;19.66;37.69;98660.44;10498058;28;20059;-60
2022/03/20 18:51:18;;;;;;;4.03;2.25;;;;;;;19.66;38.15;98662.31;10503229;28;20054;-60
2022/03/20 18:56:38;;;;;;;3.00;2.40;;;;;;;19.65;38.30;98653.38;10521136;28;20060;-61
2022/03/20 19:01:58;;;;;;;3.88;2.38;;;;;;;19.67;38.29;98653.13;10507000;28;20406;-60
2022/03/20 19:07:19;;;;;;;2.70;2.42;;;;;;;19.65;38.37;98655.28;10499543;28;20048;-61
2022/03/20 19:12:42;;;;;;;4.63;2.33;;;;;;;19.63;38.73;98652.84;10509046;28;20123;-60
2022/03/20 19:18:01;;;;;;;2.40;2.20;;;;;;;19.65;38.75;98666.09;10514582;28;20055;-61
2022/03/20 19:23:21;;;;;;;4.57;2.35;;;;;;;19.64;38.88;98665.31;10456484;28;20450;-58
2022/03/20 19:28:41;;;;;;;4.85;2.30;;;;;;;19.63;38.98;98660.16;10538499;28;20052;-59
2022/03/20 19:40:00;;;;;;;4.32;2.35;;;;;;;19.63;39.40;98665.59;10507484;28;20048;-58
2022/03/20 19:45:20;;;;;;;4.43;2.38;;;;;;;19.61;39.74;98665.06;10468734;28;20056;-59
2022/03/20 19:50:39;;;;;;;4.68;2.83;;;;;;;19.61;39.99;98673.16;10455029;28;20040;-63
2022/03/20 19:55:58;;;;;;;4.57;2.60;;;;;;;19.60;40.09;98675.06;10504398;28;20044;-62
2022/03/20 20:01:18;;;;;;;3.88;2.70;;;;;;;19.60;40.06;98668.81;10504374;28;20084;-65
2022/03/20 20:06:38;;;;;;;5.63;2.63;;;;;;;19.58;40.20;98665.59;10532424;28;20163;-65
2022/03/20 20:11:58;;;;;;;5.57;2.38;;;;;;;19.58;40.22;98666.41;10494240;28;20052;-64
2022/03/20 20:17:26;;;;;;;10.48;2.83;;;;;;;19.56;40.41;98658.59;10498627;28;20048;-61
2022/03/20 20:22:45;;;;;;;4.88;2.70;;;;;;;19.56;40.56;98666.69;10493527;28;20053;-58
2022/03/20 20:28:05;;;;;;;6.45;2.50;;;;;;;19.56;40.70;98664.00;10511489;28;20063;-60
2022/03/20 20:33:24;;;;;;;3.08;2.40;;;;;;;19.56;40.73;98660.47;10497264;28;20113;-59
2022/03/20 20:38:43;;;;;;;3.63;3.00;;;;;;;19.56;40.84;98668.56;10495036;28;20131;-59
2022/03/20 20:44:04;;;;;;;5.00;2.53;;;;;;;19.55;40.72;98661.56;10498724;28;20114;-58
2022/03/20 20:49:23;;;;;;;3.72;2.33;;;;;;;19.55;40.69;98661.56;10495619;28;20055;-59
2022/03/20 20:54:44;;;;;;;4.40;2.75;;;;;;;19.54;40.89;98662.63;10491836;28;20414;-59
2022/03/20 21:00:04;;;;;;;4.25;2.63;;;;;;;19.53;40.83;98669.94;10497798;28;20395;-57
2022/03/20 21:05:24;;;;;;;5.45;2.80;;;;;;;19.52;41.03;98662.09;10494411;28;20119;-58
2022/03/20 21:10:55;;;;;;;4.47;2.75;;;;;;;19.51;40.94;98671.31;10462716;28;20559;-59
2022/03/20 21:16:18;;;;;;;5.53;2.70;;;;;;;19.51;41.12;98665.91;10502059;28;20551;-59
2022/03/20 21:21:38;;;;;;;2.83;2.40;;;;;;;19.51;41.09;98669.41;10534126;28;20075;-58
2022/03/20 21:26:58;;;;;;;3.13;2.40;;;;;;;19.50;41.18;98675.94;10542047;28;20121;-60
2022/03/20 21:32:17;;;;;;;4.32;2.53;;;;;;;19.49;41.12;98678.91;10529356;28;20047;-60
2022/03/20 21:37:37;;;;;;;3.42;2.53;;;;;;;19.47;41.19;98670.25;10504423;28;20060;-59
2022/03/20 21:42:56;;;;;;;3.50;2.38;;;;;;;19.47;40.94;98664.84;10463200;28;20053;-58
2022/03/20 21:48:18;;;;;;;2.85;2.42;;;;;;;19.47;40.66;98662.16;10459821;28;20114;-59
2022/03/20 21:53:39;;;;;;;3.45;2.40;;;;;;;19.45;40.61;98664.31;10454710;28;20099;-58
2022/03/20 21:58:59;;;;;;;4.03;3.00;;;;;;;19.43;40.34;98653.78;10456412;28;20037;-59
2022/03/20 22:04:19;;;;;;;3.17;2.55;;;;;;;19.42;40.02;98654.06;10453148;28;20049;-60
2022/03/20 22:09:38;;;;;;;3.38;2.83;;;;;;;19.41;39.69;98650.56;10453140;28;20115;-59
2022/03/20 22:14:59;;;;;;;4.65;2.80;;;;;;;19.40;39.57;98650.81;10465381;28;20033;-59
2022/03/20 22:20:19;;;;;;;5.60;3.30;;;;;;;19.39;39.59;98662.75;10469498;28;20041;-59
2022/03/20 22:25:39;;;;;;;4.68;2.65;;;;;;;19.37;39.33;98668.41;10441214;28;20076;-60
2022/03/20 22:30:59;;;;;;;4.50;2.80;;;;;;;19.36;39.32;98658.69;10451619;28;20045;-60
2022/03/20 22:41:58;;;;;;;3.17;2.60;;;;;;;19.34;39.33;98644.63;10453468;28;20466;-60
2022/03/20 22:47:17;;;;;;;3.17;2.70;;;;;;;19.32;39.07;98657.63;10457691;28;20037;-58
2022/03/20 22:52:37;;;;;;;3.00;2.70;;;;;;;19.31;39.14;98656.81;10450742;28;20075;-59
2022/03/20 22:57:57;;;;;;;3.63;2.50;;;;;;;19.30;39.20;98654.38;10449933;28;20041;-59
2022/03/20 23:03:17;;;;;;;3.22;2.53;;;;;;;19.29;39.03;98659.00;10464145;28;20045;-59
2022/03/20 23:08:37;;;;;;;3.53;2.30;;;;;;;19.28;39.01;98651.16;10460696;28;20057;-59
2022/03/20 23:13:57;;;;;;;3.53;2.35;;;;;;;19.26;39.04;98651.41;10457557;28;20049;-59
2022/03/20 23:19:17;;;;;;;2.90;2.53;;;;;;;19.26;38.96;98647.91;10448426;28;20057;-59
2022/03/20 23:24:36;;;;;;;2.83;2.45;;;;;;;19.25;38.99;98640.88;10439848;28;20041;-60
2022/03/20 23:29:56;;;;;;;3.08;2.35;;;;;;;19.23;38.88;98643.06;10443936;28;20435;-58
2022/03/20 23:35:17;;;;;;;2.80;2.50;;;;;;;19.21;38.82;98646.06;10471080;28;20049;-60
2022/03/20 23:40:38;;;;;;;3.70;2.92;;;;;;;19.21;38.71;98642.53;10456311;28;20064;-60
2022/03/20 23:46:00;;;;;;;2.97;2.55;;;;;;;19.19;38.83;98632.03;10507577;28;20052;-59
2022/03/20 23:51:20;;;;;;;3.15;2.58;;;;;;;19.17;38.71;98629.59;10503751;28;20048;-58
2022/03/20 23:56:39;;;;;;;3.28;2.60;;;;;;;19.18;38.88;98633.09;10477953;28;20488;-59
